sensor_id;sensor_type;location;lat;lon;timestamp;temperature;humidity
24452;DHT22;13350;50.984;5.822;2023-05-10T00:01:53;12.90;99.90
24452;DHT22;13350;50.984;5.822;2023-05-10T00:04:20;12.90;99.90
24452;DHT22;13350;50.984;5.822;2023-05-10T00:06:47;12.90;99.90
24452;DHT22;13350;50.984;5.822;2023-05-10T00:09:16;12.80;99.90
24452;DHT22;13350;50.984;5.822;2023-05-10T00:11:43;12.80;99.90
24452;DHT22;13350;50.984;5.822;2023-05-10T00:14:10;12.80;99.90
24452;DHT22;13350;50.984;5.822;2023-05-10T00:16:38;12.80;99.90
24452;DHT22;13350;50.984;5.822;2023-05-10T00:19:05;12.80;99.90
24452;DHT22;13350;50.984;5.822;2023-05-10T00:21:32;12.80;99.90
24452;DHT22;13350;50.984;5.822;2023-05-10T00:24:00;12.70;99.90
24452;DHT22;13350;50.984;5.822;2023-05-10T00:26:29;12.80;99.90
24452;DHT22;13350;50.984;5.822;2023-05-10T00:28:56;12.80;99.90
24452;DHT22;13350;50.984;5.822;2023-05-10T00:31:24;12.80;99.90
24452;DHT22;13350;50.984;5.822;2023-05-10T00:33:51;12.80;99.90
24452;DHT22;13350;50.984;5.822;2023-05-10T00:36:19;12.80;99.90
24452;DHT22;13350;50.984;5.822;2023-05-10T00:38:46;12.80;99.90
24452;DHT22;13350;50.984;5.822;2023-05-10T00:41:13;12.70;99.90
24452;DHT22;13350;50.984;5.822;2023-05-10T00:43:43;12.80;99.90
24452;DHT22;13350;50.984;5.822;2023-05-10T00:46:10;12.70;99.90
24452;DHT22;13350;50.984;5.822;2023-05-10T00:48:38;12.80;99.90
24452;DHT22;13350;50.984;5.822;2023-05-10T00:51:05;12.80;99.90
24452;DHT22;13350;50.984;5.822;2023-05-10T00:53:34;12.80;99.90
24452;DHT22;13350;50.984;5.822;2023-05-10T00:56:02;12.80;99.90
24452;DHT22;13350;50.984;5.822;2023-05-10T00:58:29;12.80;99.90
24452;DHT22;13350;50.984;5.822;2023-05-10T01:00:58;12.90;99.90
24452;DHT22;13350;50.984;5.822;2023-05-10T01:03:26;12.90;99.90
24452;DHT22;13350;50.984;5.822;2023-05-10T01:05:54;12.80;99.90
24452;DHT22;13350;50.984;5.822;2023-05-10T01:08:22;12.90;99.90
24452;DHT22;13350;50.984;5.822;2023-05-10T01:10:49;12.90;99.90
24452;DHT22;13350;50.984;5.822;2023-05-10T01:13:27;12.90;99.90
24452;DHT22;13350;50.984;5.822;2023-05-10T01:15:57;12.90;99.90
24452;DHT22;13350;50.984;5.822;2023-05-10T01:18:27;13.00;99.90
24452;DHT22;13350;50.984;5.822;2023-05-10T01:21:02;12.90;99.90
24452;DHT22;13350;50.984;5.822;2023-05-10T01:23:41;12.90;99.90
24452;DHT22;13350;50.984;5.822;2023-05-10T01:26:33;12.90;99.90
24452;DHT22;13350;50.984;5.822;2023-05-10T01:29:18;12.90;99.90
24452;DHT22;13350;50.984;5.822;2023-05-10T01:32:09;12.90;99.90
24452;DHT22;13350;50.984;5.822;2023-05-10T01:34:46;12.90;99.90
24452;DHT22;13350;50.984;5.822;2023-05-10T01:37:21;12.80;99.90
24452;DHT22;13350;50.984;5.822;2023-05-10T01:39:55;12.80;99.90
24452;DHT22;13350;50.984;5.822;2023-05-10T01:42:28;12.80;99.90
24452;DHT22;13350;50.984;5.822;2023-05-10T01:45:05;12.80;99.90
24452;DHT22;13350;50.984;5.822;2023-05-10T01:47:38;12.80;99.90
24452;DHT22;13350;50.984;5.822;2023-05-10T01:50:10;12.80;99.90
24452;DHT22;13350;50.984;5.822;2023-05-10T01:52:42;12.80;99.90
24452;DHT22;13350;50.984;5.822;2023-05-10T01:55:14;12.80;99.90
24452;DHT22;13350;50.984;5.822;2023-05-10T01:57:44;12.80;99.90
24452;DHT22;13350;50.984;5.822;2023-05-10T02:00:13;12.80;99.90
24452;DHT22;13350;50.984;5.822;2023-05-10T02:02:45;12.80;99.90
24452;DHT22;13350;50.984;5.822;2023-05-10T02:05:14;12.70;99.90
24452;DHT22;13350;50.984;5.822;2023-05-10T02:07:42;12.70;99.90
24452;DHT22;13350;50.984;5.822;2023-05-10T02:10:10;12.70;99.90
24452;DHT22;13350;50.984;5.822;2023-05-10T02:12:41;12.70;99.90
24452;DHT22;13350;50.984;5.822;2023-05-10T02:15:11;12.70;99.90
24452;DHT22;13350;50.984;5.822;2023-05-10T02:17:39;12.70;99.90
24452;DHT22;13350;50.984;5.822;2023-05-10T02:20:11;12.70;99.90
24452;DHT22;13350;50.984;5.822;2023-05-10T02:22:40;12.70;99.90
24452;DHT22;13350;50.984;5.822;2023-05-10T02:25:08;12.70;99.90
24452;DHT22;13350;50.984;5.822;2023-05-10T02:27:37;12.70;99.90
24452;DHT22;13350;50.984;5.822;2023-05-10T02:30:06;12.70;99.90
24452;DHT22;13350;50.984;5.822;2023-05-10T02:32:34;12.70;99.90
24452;DHT22;13350;50.984;5.822;2023-05-10T02:35:03;12.60;99.90
24452;DHT22;13350;50.984;5.822;2023-05-10T02:37:33;12.60;99.90
24452;DHT22;13350;50.984;5.822;2023-05-10T02:40:01;12.60;99.90
24452;DHT22;13350;50.984;5.822;2023-05-10T02:42:33;12.60;99.90
24452;DHT22;13350;50.984;5.822;2023-05-10T02:45:07;12.60;99.90
24452;DHT22;13350;50.984;5.822;2023-05-10T02:47:34;12.50;99.90
24452;DHT22;13350;50.984;5.822;2023-05-10T02:50:02;12.50;99.90
24452;DHT22;13350;50.984;5.822;2023-05-10T02:52:38;12.50;99.90
24452;DHT22;13350;50.984;5.822;2023-05-10T02:55:09;12.40;99.90
24452;DHT22;13350;50.984;5.822;2023-05-10T02:57:40;12.40;99.90
24452;DHT22;13350;50.984;5.822;2023-05-10T03:00:08;12.50;99.90
24452;DHT22;13350;50.984;5.822;2023-05-10T03:02:36;12.40;99.90
24452;DHT22;13350;50.984;5.822;2023-05-10T03:05:03;12.40;99.90
24452;DHT22;13350;50.984;5.822;2023-05-10T03:07:31;12.40;99.90
24452;DHT22;13350;50.984;5.822;2023-05-10T03:10:00;12.50;99.90
24452;DHT22;13350;50.984;5.822;2023-05-10T03:12:38;12.40;99.90
24452;DHT22;13350;50.984;5.822;2023-05-10T03:15:13;12.40;99.90
24452;DHT22;13350;50.984;5.822;2023-05-10T03:17:47;12.40;99.90
24452;DHT22;13350;50.984;5.822;2023-05-10T03:20:21;12.40;99.90
24452;DHT22;13350;50.984;5.822;2023-05-10T03:22:53;12.40;99.90
24452;DHT22;13350;50.984;5.822;2023-05-10T03:25:24;12.50;99.90
24452;DHT22;13350;50.984;5.822;2023-05-10T03:27:52;12.40;99.90
24452;DHT22;13350;50.984;5.822;2023-05-10T03:30:19;12.40;99.90
24452;DHT22;13350;50.984;5.822;2023-05-10T03:32:47;12.40;99.90
24452;DHT22;13350;50.984;5.822;2023-05-10T03:35:14;12.40;99.90
24452;DHT22;13350;50.984;5.822;2023-05-10T03:37:41;12.40;99.90
24452;DHT22;13350;50.984;5.822;2023-05-10T03:40:10;12.40;99.90
24452;DHT22;13350;50.984;5.822;2023-05-10T03:42:38;12.40;99.90
24452;DHT22;13350;50.984;5.822;2023-05-10T03:45:07;12.40;99.90
24452;DHT22;13350;50.984;5.822;2023-05-10T03:47:34;12.40;99.90
24452;DHT22;13350;50.984;5.822;2023-05-10T03:50:02;12.40;99.90
24452;DHT22;13350;50.984;5.822;2023-05-10T03:52:29;12.40;99.90
24452;DHT22;13350;50.984;5.822;2023-05-10T03:54:57;12.40;99.90
24452;DHT22;13350;50.984;5.822;2023-05-10T03:57:24;12.40;99.90
24452;DHT22;13350;50.984;5.822;2023-05-10T03:59:53;12.40;99.90
24452;DHT22;13350;50.984;5.822;2023-05-10T04:02:20;12.40;99.90
24452;DHT22;13350;50.984;5.822;2023-05-10T04:04:47;12.40;99.90
24452;DHT22;13350;50.984;5.822;2023-05-10T04:07:15;12.40;99.90
24452;DHT22;13350;50.984;5.822;2023-05-10T04:09:42;12.40;99.90
24452;DHT22;13350;50.984;5.822;2023-05-10T04:12:09;12.40;99.90
24452;DHT22;13350;50.984;5.822;2023-05-10T04:14:36;12.40;99.90
24452;DHT22;13350;50.984;5.822;2023-05-10T04:17:05;12.40;99.90
24452;DHT22;13350;50.984;5.822;2023-05-10T04:19:33;12.40;99.90
24452;DHT22;13350;50.984;5.822;2023-05-10T04:22:02;12.40;99.90
24452;DHT22;13350;50.984;5.822;2023-05-10T04:24:29;12.50;99.90
24452;DHT22;13350;50.984;5.822;2023-05-10T04:26:56;12.50;99.90
24452;DHT22;13350;50.984;5.822;2023-05-10T04:29:23;12.50;99.90
24452;DHT22;13350;50.984;5.822;2023-05-10T04:31:51;12.40;99.90
24452;DHT22;13350;50.984;5.822;2023-05-10T04:34:21;12.40;99.90
24452;DHT22;13350;50.984;5.822;2023-05-10T04:36:49;12.50;99.90
24452;DHT22;13350;50.984;5.822;2023-05-10T04:39:16;12.40;99.90
24452;DHT22;13350;50.984;5.822;2023-05-10T04:41:43;12.50;99.90
24452;DHT22;13350;50.984;5.822;2023-05-10T04:44:11;12.50;99.90
24452;DHT22;13350;50.984;5.822;2023-05-10T04:46:38;12.50;99.90
24452;DHT22;13350;50.984;5.822;2023-05-10T04:49:05;12.50;99.90
24452;DHT22;13350;50.984;5.822;2023-05-10T04:51:34;12.50;99.90
24452;DHT22;13350;50.984;5.822;2023-05-10T04:54:01;12.50;99.90
24452;DHT22;13350;50.984;5.822;2023-05-10T04:56:28;12.50;99.90
24452;DHT22;13350;50.984;5.822;2023-05-10T04:58:55;12.50;99.90
24452;DHT22;13350;50.984;5.822;2023-05-10T05:01:22;12.50;99.90
24452;DHT22;13350;50.984;5.822;2023-05-10T05:03:50;12.50;99.90
24452;DHT22;13350;50.984;5.822;2023-05-10T05:06:18;12.50;99.90
24452;DHT22;13350;50.984;5.822;2023-05-10T05:08:48;12.60;99.90
24452;DHT22;13350;50.984;5.822;2023-05-10T05:11:16;12.60;99.90
24452;DHT22;13350;50.984;5.822;2023-05-10T05:13:43;12.60;99.90
24452;DHT22;13350;50.984;5.822;2023-05-10T05:16:10;12.60;99.90
24452;DHT22;13350;50.984;5.822;2023-05-10T05:18:38;12.70;99.90
24452;DHT22;13350;50.984;5.822;2023-05-10T05:21:14;12.70;99.90
24452;DHT22;13350;50.984;5.822;2023-05-10T05:23:42;12.70;99.90
24452;DHT22;13350;50.984;5.822;2023-05-10T05:26:10;12.70;99.90
24452;DHT22;13350;50.984;5.822;2023-05-10T05:28:38;12.70;99.90
24452;DHT22;13350;50.984;5.822;2023-05-10T05:31:06;12.70;99.90
24452;DHT22;13350;50.984;5.822;2023-05-10T05:33:33;12.70;99.90
24452;DHT22;13350;50.984;5.822;2023-05-10T05:36:01;12.70;99.90
24452;DHT22;13350;50.984;5.822;2023-05-10T05:38:28;12.70;99.90
24452;DHT22;13350;50.984;5.822;2023-05-10T05:40:55;12.70;99.90
24452;DHT22;13350;50.984;5.822;2023-05-10T05:43:24;12.70;99.90
24452;DHT22;13350;50.984;5.822;2023-05-10T05:45:52;12.70;99.90
24452;DHT22;13350;50.984;5.822;2023-05-10T05:48:19;12.80;99.90
24452;DHT22;13350;50.984;5.822;2023-05-10T05:50:46;12.80;99.90
24452;DHT22;13350;50.984;5.822;2023-05-10T05:53:14;12.80;99.90
24452;DHT22;13350;50.984;5.822;2023-05-10T05:55:51;12.80;99.90
24452;DHT22;13350;50.984;5.822;2023-05-10T05:58:18;12.80;99.90
24452;DHT22;13350;50.984;5.822;2023-05-10T06:00:47;12.80;99.90
24452;DHT22;13350;50.984;5.822;2023-05-10T06:03:15;12.90;99.90
24452;DHT22;13350;50.984;5.822;2023-05-10T06:05:42;12.90;99.90
24452;DHT22;13350;50.984;5.822;2023-05-10T06:08:09;12.90;99.90
24452;DHT22;13350;50.984;5.822;2023-05-10T06:10:37;13.00;99.90
24452;DHT22;13350;50.984;5.822;2023-05-10T06:13:04;13.00;99.90
24452;DHT22;13350;50.984;5.822;2023-05-10T06:15:31;13.10;99.90
24452;DHT22;13350;50.984;5.822;2023-05-10T06:18:00;13.10;99.90
24452;DHT22;13350;50.984;5.822;2023-05-10T06:20:28;13.00;99.90
24452;DHT22;13350;50.984;5.822;2023-05-10T06:22:57;13.00;99.90
24452;DHT22;13350;50.984;5.822;2023-05-10T06:25:24;13.00;99.90
24452;DHT22;13350;50.984;5.822;2023-05-10T06:27:51;12.90;99.90
24452;DHT22;13350;50.984;5.822;2023-05-10T06:30:24;13.00;99.90
24452;DHT22;13350;50.984;5.822;2023-05-10T06:32:53;12.90;99.90
24452;DHT22;13350;50.984;5.822;2023-05-10T06:35:22;12.90;99.90
24452;DHT22;13350;50.984;5.822;2023-05-10T06:37:50;12.90;99.90
24452;DHT22;13350;50.984;5.822;2023-05-10T06:40:18;12.80;99.90
24452;DHT22;13350;50.984;5.822;2023-05-10T06:42:45;12.80;99.90
24452;DHT22;13350;50.984;5.822;2023-05-10T06:45:12;12.80;99.90
24452;DHT22;13350;50.984;5.822;2023-05-10T06:47:40;12.80;99.90
24452;DHT22;13350;50.984;5.822;2023-05-10T06:50:08;12.90;99.90
24452;DHT22;13350;50.984;5.822;2023-05-10T06:52:38;12.80;99.90
24452;DHT22;13350;50.984;5.822;2023-05-10T06:55:06;12.90;99.90
24452;DHT22;13350;50.984;5.822;2023-05-10T06:57:34;13.00;99.90
24452;DHT22;13350;50.984;5.822;2023-05-10T07:00:02;12.90;99.90
24452;DHT22;13350;50.984;5.822;2023-05-10T07:02:30;12.90;99.90
24452;DHT22;13350;50.984;5.822;2023-05-10T07:04:58;12.90;99.90
24452;DHT22;13350;50.984;5.822;2023-05-10T07:07:25;12.90;99.90
24452;DHT22;13350;50.984;5.822;2023-05-10T07:09:53;13.00;99.90
24452;DHT22;13350;50.984;5.822;2023-05-10T07:12:22;13.00;99.90
24452;DHT22;13350;50.984;5.822;2023-05-10T07:14:49;13.00;99.90
24452;DHT22;13350;50.984;5.822;2023-05-10T07:17:16;13.10;99.90
24452;DHT22;13350;50.984;5.822;2023-05-10T07:19:44;13.10;99.90
24452;DHT22;13350;50.984;5.822;2023-05-10T07:22:11;13.00;99.90
24452;DHT22;13350;50.984;5.822;2023-05-10T07:24:38;12.80;99.90
24452;DHT22;13350;50.984;5.822;2023-05-10T07:27:07;12.70;99.90
24452;DHT22;13350;50.984;5.822;2023-05-10T07:29:35;12.70;99.90
24452;DHT22;13350;50.984;5.822;2023-05-10T07:32:03;12.70;99.90
24452;DHT22;13350;50.984;5.822;2023-05-10T07:34:30;12.80;99.90
24452;DHT22;13350;50.984;5.822;2023-05-10T07:36:58;12.80;99.90
24452;DHT22;13350;50.984;5.822;2023-05-10T07:39:26;12.90;99.90
24452;DHT22;13350;50.984;5.822;2023-05-10T07:41:53;12.80;99.90
24452;DHT22;13350;50.984;5.822;2023-05-10T07:44:21;12.80;99.90
24452;DHT22;13350;50.984;5.822;2023-05-10T07:46:49;12.80;99.90
24452;DHT22;13350;50.984;5.822;2023-05-10T07:49:16;12.80;99.90
24452;DHT22;13350;50.984;5.822;2023-05-10T07:51:43;12.80;99.90
24452;DHT22;13350;50.984;5.822;2023-05-10T07:54:10;12.80;99.90
24452;DHT22;13350;50.984;5.822;2023-05-10T07:56:38;12.80;99.90
24452;DHT22;13350;50.984;5.822;2023-05-10T07:59:10;12.80;99.90
24452;DHT22;13350;50.984;5.822;2023-05-10T08:01:42;12.90;99.90
24452;DHT22;13350;50.984;5.822;2023-05-10T08:04:09;13.00;99.90
24452;DHT22;13350;50.984;5.822;2023-05-10T08:06:37;13.00;99.90
24452;DHT22;13350;50.984;5.822;2023-05-10T08:09:04;13.10;99.90
24452;DHT22;13350;50.984;5.822;2023-05-10T08:11:31;13.20;99.90
24452;DHT22;13350;50.984;5.822;2023-05-10T08:13:58;13.30;99.90
24452;DHT22;13350;50.984;5.822;2023-05-10T08:16:26;13.30;99.90
24452;DHT22;13350;50.984;5.822;2023-05-10T08:18:54;13.40;99.90
24452;DHT22;13350;50.984;5.822;2023-05-10T08:21:22;13.50;99.90
24452;DHT22;13350;50.984;5.822;2023-05-10T08:23:49;13.60;99.90
24452;DHT22;13350;50.984;5.822;2023-05-10T08:26:16;13.70;99.90
24452;DHT22;13350;50.984;5.822;2023-05-10T08:28:43;13.70;99.90
24452;DHT22;13350;50.984;5.822;2023-05-10T08:31:10;13.70;99.90
24452;DHT22;13350;50.984;5.822;2023-05-10T08:33:37;13.60;99.90
24452;DHT22;13350;50.984;5.822;2023-05-10T08:36:06;13.70;99.90
24452;DHT22;13350;50.984;5.822;2023-05-10T08:38:33;13.80;99.90
24452;DHT22;13350;50.984;5.822;2023-05-10T08:41:02;13.80;99.90
24452;DHT22;13350;50.984;5.822;2023-05-10T08:43:30;13.80;99.90
24452;DHT22;13350;50.984;5.822;2023-05-10T08:46:00;13.80;99.90
24452;DHT22;13350;50.984;5.822;2023-05-10T08:48:29;14.00;99.90
24452;DHT22;13350;50.984;5.822;2023-05-10T08:50:58;14.00;99.90
24452;DHT22;13350;50.984;5.822;2023-05-10T08:53:31;14.10;99.90
24452;DHT22;13350;50.984;5.822;2023-05-10T08:56:02;14.00;99.90
24452;DHT22;13350;50.984;5.822;2023-05-10T08:58:29;14.00;99.90
24452;DHT22;13350;50.984;5.822;2023-05-10T09:00:57;13.90;99.90
24452;DHT22;13350;50.984;5.822;2023-05-10T09:03:24;14.00;99.90
24452;DHT22;13350;50.984;5.822;2023-05-10T09:05:52;13.90;99.90
24452;DHT22;13350;50.984;5.822;2023-05-10T09:08:23;14.00;99.90
24452;DHT22;13350;50.984;5.822;2023-05-10T09:10:54;14.00;99.90
24452;DHT22;13350;50.984;5.822;2023-05-10T09:13:23;13.90;99.90
24452;DHT22;13350;50.984;5.822;2023-05-10T09:15:51;14.10;99.90
24452;DHT22;13350;50.984;5.822;2023-05-10T09:18:18;13.90;99.90
24452;DHT22;13350;50.984;5.822;2023-05-10T09:20:46;13.90;99.90
24452;DHT22;13350;50.984;5.822;2023-05-10T09:23:13;13.90;99.90
24452;DHT22;13350;50.984;5.822;2023-05-10T09:25:41;13.70;99.90
24452;DHT22;13350;50.984;5.822;2023-05-10T09:28:10;13.50;99.90
24452;DHT22;13350;50.984;5.822;2023-05-10T09:30:37;13.50;99.90
24452;DHT22;13350;50.984;5.822;2023-05-10T09:33:05;13.50;99.90
24452;DHT22;13350;50.984;5.822;2023-05-10T09:35:32;13.40;99.90
24452;DHT22;13350;50.984;5.822;2023-05-10T09:38:02;13.60;99.90
24452;DHT22;13350;50.984;5.822;2023-05-10T09:40:30;13.70;99.90
24452;DHT22;13350;50.984;5.822;2023-05-10T09:42:59;14.10;99.90
24452;DHT22;13350;50.984;5.822;2023-05-10T09:45:29;14.10;99.90
24452;DHT22;13350;50.984;5.822;2023-05-10T09:47:57;14.00;99.90
24452;DHT22;13350;50.984;5.822;2023-05-10T09:50:25;13.90;99.90
24452;DHT22;13350;50.984;5.822;2023-05-10T09:52:55;13.90;99.90
24452;DHT22;13350;50.984;5.822;2023-05-10T09:55:25;14.20;99.90
24452;DHT22;13350;50.984;5.822;2023-05-10T09:57:59;14.00;99.90
24452;DHT22;13350;50.984;5.822;2023-05-10T10:00:33;14.00;99.90
24452;DHT22;13350;50.984;5.822;2023-05-10T10:03:01;14.30;99.90
24452;DHT22;13350;50.984;5.822;2023-05-10T10:05:28;14.30;99.90
24452;DHT22;13350;50.984;5.822;2023-05-10T10:07:57;14.90;99.90
24452;DHT22;13350;50.984;5.822;2023-05-10T10:10:24;15.10;99.90
24452;DHT22;13350;50.984;5.822;2023-05-10T10:12:52;15.30;99.90
24452;DHT22;13350;50.984;5.822;2023-05-10T10:15:20;15.50;99.90
24452;DHT22;13350;50.984;5.822;2023-05-10T10:17:49;15.70;99.90
24452;DHT22;13350;50.984;5.822;2023-05-10T10:20:19;16.00;99.90
24452;DHT22;13350;50.984;5.822;2023-05-10T10:22:46;15.70;99.90
24452;DHT22;13350;50.984;5.822;2023-05-10T10:25:15;15.90;99.90
24452;DHT22;13350;50.984;5.822;2023-05-10T10:27:48;15.90;99.90
24452;DHT22;13350;50.984;5.822;2023-05-10T10:30:27;15.80;99.90
24452;DHT22;13350;50.984;5.822;2023-05-10T10:33:18;15.80;99.90
24452;DHT22;13350;50.984;5.822;2023-05-10T10:35:52;15.80;99.90
24452;DHT22;13350;50.984;5.822;2023-05-10T10:38:20;15.60;99.90
24452;DHT22;13350;50.984;5.822;2023-05-10T10:40:48;15.40;99.90
24452;DHT22;13350;50.984;5.822;2023-05-10T10:43:29;15.10;99.90
24452;DHT22;13350;50.984;5.822;2023-05-10T10:46:20;14.90;99.90
24452;DHT22;13350;50.984;5.822;2023-05-10T10:51:37;15.50;99.90
24452;DHT22;13350;50.984;5.822;2023-05-10T10:54:09;15.70;99.90
24452;DHT22;13350;50.984;5.822;2023-05-10T10:56:37;15.70;99.90
24452;DHT22;13350;50.984;5.822;2023-05-10T10:59:04;15.80;99.90
24452;DHT22;13350;50.984;5.822;2023-05-10T11:01:33;16.10;99.90
24452;DHT22;13350;50.984;5.822;2023-05-10T11:04:20;16.20;99.90
24452;DHT22;13350;50.984;5.822;2023-05-10T11:06:47;16.30;99.90
24452;DHT22;13350;50.984;5.822;2023-05-10T11:09:15;16.20;99.90
24452;DHT22;13350;50.984;5.822;2023-05-10T11:11:51;16.20;99.90
24452;DHT22;13350;50.984;5.822;2023-05-10T11:14:20;16.20;99.90
24452;DHT22;13350;50.984;5.822;2023-05-10T11:16:48;16.00;99.90
24452;DHT22;13350;50.984;5.822;2023-05-10T11:19:16;15.90;99.90
24452;DHT22;13350;50.984;5.822;2023-05-10T11:21:50;16.00;99.90
24452;DHT22;13350;50.984;5.822;2023-05-10T11:24:19;16.50;99.90
24452;DHT22;13350;50.984;5.822;2023-05-10T11:26:50;16.80;99.90
24452;DHT22;13350;50.984;5.822;2023-05-10T11:29:17;17.20;99.90
24452;DHT22;13350;50.984;5.822;2023-05-10T11:31:45;18.10;99.90
24452;DHT22;13350;50.984;5.822;2023-05-10T11:34:23;18.50;99.90
24452;DHT22;13350;50.984;5.822;2023-05-10T11:36:55;18.00;99.90
24452;DHT22;13350;50.984;5.822;2023-05-10T11:39:26;17.70;99.90
24452;DHT22;13350;50.984;5.822;2023-05-10T11:41:54;17.70;99.90
24452;DHT22;13350;50.984;5.822;2023-05-10T11:44:21;17.90;99.90
24452;DHT22;13350;50.984;5.822;2023-05-10T11:46:49;17.80;99.90
24452;DHT22;13350;50.984;5.822;2023-05-10T11:49:16;18.20;99.90
24452;DHT22;13350;50.984;5.822;2023-05-10T11:51:43;17.90;99.90
24452;DHT22;13350;50.984;5.822;2023-05-10T11:54:12;17.90;99.90
24452;DHT22;13350;50.984;5.822;2023-05-10T11:56:40;17.80;99.90
24452;DHT22;13350;50.984;5.822;2023-05-10T11:59:07;17.70;99.90
24452;DHT22;13350;50.984;5.822;2023-05-10T12:01:35;17.50;99.90
24452;DHT22;13350;50.984;5.822;2023-05-10T12:04:03;17.50;99.90
24452;DHT22;13350;50.984;5.822;2023-05-10T12:06:32;17.60;99.90
24452;DHT22;13350;50.984;5.822;2023-05-10T12:09:06;17.90;99.90
24452;DHT22;13350;50.984;5.822;2023-05-10T12:11:37;17.70;99.90
24452;DHT22;13350;50.984;5.822;2023-05-10T12:14:05;17.10;99.90
24452;DHT22;13350;50.984;5.822;2023-05-10T12:16:33;16.80;99.90
24452;DHT22;13350;50.984;5.822;2023-05-10T12:19:00;17.20;99.90
24452;DHT22;13350;50.984;5.822;2023-05-10T12:21:29;17.50;99.90
24452;DHT22;13350;50.984;5.822;2023-05-10T12:24:01;17.30;99.90
24452;DHT22;13350;50.984;5.822;2023-05-10T12:26:28;17.10;99.90
24452;DHT22;13350;50.984;5.822;2023-05-10T12:29:12;17.00;99.90
24452;DHT22;13350;50.984;5.822;2023-05-10T12:31:52;17.20;99.90
24452;DHT22;13350;50.984;5.822;2023-05-10T12:34:24;17.30;99.90
24452;DHT22;13350;50.984;5.822;2023-05-10T12:36:52;17.80;99.90
24452;DHT22;13350;50.984;5.822;2023-05-10T12:39:19;17.90;99.90
24452;DHT22;13350;50.984;5.822;2023-05-10T12:41:46;17.90;99.90
24452;DHT22;13350;50.984;5.822;2023-05-10T12:44:15;18.20;99.90
24452;DHT22;13350;50.984;5.822;2023-05-10T12:46:42;17.80;99.90
24452;DHT22;13350;50.984;5.822;2023-05-10T12:49:10;18.00;99.90
24452;DHT22;13350;50.984;5.822;2023-05-10T12:51:37;18.10;99.90
24452;DHT22;13350;50.984;5.822;2023-05-10T12:54:04;18.00;99.90
24452;DHT22;13350;50.984;5.822;2023-05-10T12:56:31;18.30;99.90
24452;DHT22;13350;50.984;5.822;2023-05-10T12:58:59;18.90;99.90
24452;DHT22;13350;50.984;5.822;2023-05-10T13:01:27;19.00;99.90
24452;DHT22;13350;50.984;5.822;2023-05-10T13:03:55;19.10;99.90
24452;DHT22;13350;50.984;5.822;2023-05-10T13:06:22;19.20;99.90
24452;DHT22;13350;50.984;5.822;2023-05-10T13:08:49;19.30;99.90
24452;DHT22;13350;50.984;5.822;2023-05-10T13:11:17;19.20;99.90
24452;DHT22;13350;50.984;5.822;2023-05-10T13:13:45;18.90;99.90
24452;DHT22;13350;50.984;5.822;2023-05-10T13:16:12;18.70;99.90
24452;DHT22;13350;50.984;5.822;2023-05-10T13:18:41;18.10;99.90
24452;DHT22;13350;50.984;5.822;2023-05-10T13:21:08;17.70;99.90
24452;DHT22;13350;50.984;5.822;2023-05-10T13:23:37;17.10;99.90
24452;DHT22;13350;50.984;5.822;2023-05-10T13:26:04;16.90;99.90
24452;DHT22;13350;50.984;5.822;2023-05-10T13:28:31;17.50;99.90
24452;DHT22;13350;50.984;5.822;2023-05-10T13:30:58;17.60;99.90
24452;DHT22;13350;50.984;5.822;2023-05-10T13:33:26;17.70;99.90
24452;DHT22;13350;50.984;5.822;2023-05-10T13:35:54;17.40;99.90
24452;DHT22;13350;50.984;5.822;2023-05-10T13:38:22;17.70;99.90
24452;DHT22;13350;50.984;5.822;2023-05-10T13:40:49;17.50;99.90
24452;DHT22;13350;50.984;5.822;2023-05-10T13:43:18;17.40;99.90
24452;DHT22;13350;50.984;5.822;2023-05-10T13:45:45;17.20;99.90
24452;DHT22;13350;50.984;5.822;2023-05-10T13:48:12;17.70;99.90
24452;DHT22;13350;50.984;5.822;2023-05-10T13:50:40;17.70;99.90
24452;DHT22;13350;50.984;5.822;2023-05-10T13:53:08;17.50;99.90
24452;DHT22;13350;50.984;5.822;2023-05-10T13:55:35;17.10;99.90
24452;DHT22;13350;50.984;5.822;2023-05-10T13:58:03;16.90;99.90
24452;DHT22;13350;50.984;5.822;2023-05-10T14:00:30;16.60;99.90
24452;DHT22;13350;50.984;5.822;2023-05-10T14:02:57;16.60;99.90
24452;DHT22;13350;50.984;5.822;2023-05-10T14:05:25;16.90;99.90
24452;DHT22;13350;50.984;5.822;2023-05-10T14:07:52;17.20;99.90
24452;DHT22;13350;50.984;5.822;2023-05-10T14:10:20;17.40;99.90
24452;DHT22;13350;50.984;5.822;2023-05-10T14:12:48;17.20;99.90
24452;DHT22;13350;50.984;5.822;2023-05-10T14:15:15;17.10;99.90
24452;DHT22;13350;50.984;5.822;2023-05-10T14:17:42;17.10;99.90
24452;DHT22;13350;50.984;5.822;2023-05-10T14:20:10;17.00;99.90
24452;DHT22;13350;50.984;5.822;2023-05-10T14:22:38;17.20;99.90
24452;DHT22;13350;50.984;5.822;2023-05-10T14:25:06;17.10;99.90
24452;DHT22;13350;50.984;5.822;2023-05-10T14:27:35;16.90;99.90
24452;DHT22;13350;50.984;5.822;2023-05-10T14:30:02;16.70;99.90
24452;DHT22;13350;50.984;5.822;2023-05-10T14:32:29;16.50;99.90
24452;DHT22;13350;50.984;5.822;2023-05-10T14:34:57;16.20;99.90
24452;DHT22;13350;50.984;5.822;2023-05-10T14:37:25;15.90;99.90
24452;DHT22;13350;50.984;5.822;2023-05-10T14:39:52;15.90;99.90
24452;DHT22;13350;50.984;5.822;2023-05-10T14:42:19;16.00;99.90
24452;DHT22;13350;50.984;5.822;2023-05-10T14:44:48;15.70;99.90
24452;DHT22;13350;50.984;5.822;2023-05-10T14:47:15;15.80;99.90
24452;DHT22;13350;50.984;5.822;2023-05-10T14:49:42;15.80;99.90
24452;DHT22;13350;50.984;5.822;2023-05-10T14:52:10;15.80;99.90
24452;DHT22;13350;50.984;5.822;2023-05-10T14:54:37;15.60;99.90
24452;DHT22;13350;50.984;5.822;2023-05-10T14:57:05;15.50;99.90
24452;DHT22;13350;50.984;5.822;2023-05-10T14:59:32;15.40;99.90
24452;DHT22;13350;50.984;5.822;2023-05-10T15:02:01;15.20;99.90
24452;DHT22;13350;50.984;5.822;2023-05-10T15:04:28;15.10;99.90
24452;DHT22;13350;50.984;5.822;2023-05-10T15:06:56;15.00;99.90
24452;DHT22;13350;50.984;5.822;2023-05-10T15:09:24;14.80;99.90
24452;DHT22;13350;50.984;5.822;2023-05-10T15:11:53;14.90;99.90
24452;DHT22;13350;50.984;5.822;2023-05-10T15:14:20;14.70;99.90
24452;DHT22;13350;50.984;5.822;2023-05-10T15:16:47;14.60;99.90
24452;DHT22;13350;50.984;5.822;2023-05-10T15:19:16;14.60;99.90
24452;DHT22;13350;50.984;5.822;2023-05-10T15:21:43;14.70;99.90
24452;DHT22;13350;50.984;5.822;2023-05-10T15:24:11;14.60;99.90
24452;DHT22;13350;50.984;5.822;2023-05-10T15:26:38;14.60;99.90
24452;DHT22;13350;50.984;5.822;2023-05-10T15:29:06;14.60;99.90
24452;DHT22;13350;50.984;5.822;2023-05-10T15:31:33;14.70;99.90
24452;DHT22;13350;50.984;5.822;2023-05-10T15:34:01;14.70;99.90
24452;DHT22;13350;50.984;5.822;2023-05-10T15:36:32;14.60;99.90
24452;DHT22;13350;50.984;5.822;2023-05-10T15:38:59;14.50;99.90
24452;DHT22;13350;50.984;5.822;2023-05-10T15:41:26;14.60;99.90
24452;DHT22;13350;50.984;5.822;2023-05-10T15:43:53;14.60;99.90